createdAt,value
2022-12-12T00:01:25.106Z,-3.70
2022-12-12T00:03:54.208Z,-3.70
2022-12-12T00:06:23.540Z,-3.70
2022-12-12T00:08:52.088Z,-3.60
2022-12-12T00:11:20.706Z,-3.60
2022-12-12T00:13:48.757Z,-3.70
2022-12-12T00:16:17.364Z,-3.70
2022-12-12T00:18:47.485Z,-3.70
2022-12-12T00:21:18.341Z,-3.70
2022-12-12T00:23:46.827Z,-3.80
2022-12-12T00:26:19.164Z,-3.70
2022-12-12T00:28:47.591Z,-3.70
2022-12-12T00:31:16.876Z,-3.80
2022-12-12T00:33:48.963Z,-3.80
2022-12-12T00:36:18.764Z,-3.80
2022-12-12T00:38:47.429Z,-3.80
2022-12-12T00:41:15.920Z,-3.80
2022-12-12T00:43:44.479Z,-3.90
2022-12-12T00:46:15.380Z,-3.90
2022-12-12T00:48:43.914Z,-3.80
2022-12-12T00:51:17.097Z,-3.80
2022-12-12T00:53:45.305Z,-3.90
2022-12-12T00:56:15.467Z,-3.90
2022-12-12T00:58:43.647Z,-3.90
2022-12-12T01:01:12.835Z,-3.90
2022-12-12T01:03:43.659Z,-3.90
2022-12-12T01:06:15.808Z,-3.90
2022-12-12T01:08:44.286Z,-3.90
2022-12-12T01:11:13.607Z,-3.90
2022-12-12T01:13:43.934Z,-3.90
2022-12-12T01:16:12.987Z,-3.90
2022-12-12T01:18:42.402Z,-4.00
2022-12-12T01:21:11.072Z,-4.00
2022-12-12T01:23:40.926Z,-3.90
2022-12-12T01:26:10.323Z,-4.00
2022-12-12T01:28:38.803Z,-3.90
2022-12-12T01:31:07.466Z,-3.90
2022-12-12T01:33:35.723Z,-3.90
2022-12-12T01:36:04.060Z,-3.90
2022-12-12T01:38:32.368Z,-3.90
2022-12-12T01:41:02.093Z,-3.90
2022-12-12T01:43:30.150Z,-3.90
2022-12-12T01:46:18.724Z,-3.90
2022-12-12T01:48:48.498Z,-3.90
2022-12-12T01:51:19.131Z,-3.90
2022-12-12T01:53:47.757Z,-3.90
2022-12-12T01:56:18.894Z,-3.90
2022-12-12T01:58:47.964Z,-3.90
2022-12-12T02:01:17.291Z,-4.00
2022-12-12T02:03:45.486Z,-3.90
2022-12-12T02:06:14.578Z,-3.90
2022-12-12T02:08:43.213Z,-3.90
2022-12-12T02:11:11.142Z,-3.90
2022-12-12T02:13:40.893Z,-3.90
2022-12-12T02:16:13.531Z,-3.90
2022-12-12T02:18:45.951Z,-3.90
2022-12-12T02:21:18.734Z,-4.00
2022-12-12T02:24:02.701Z,-3.90
2022-12-12T02:26:54.929Z,-3.90
2022-12-12T02:29:39.956Z,-3.90
2022-12-12T02:32:12.810Z,-3.90
2022-12-12T02:34:47.100Z,-4.00
2022-12-12T02:37:22.461Z,-4.00
2022-12-12T02:39:57.225Z,-4.00
2022-12-12T02:42:29.048Z,-4.00
2022-12-12T02:44:57.968Z,-4.00
2022-12-12T02:47:29.255Z,-4.10
2022-12-12T02:50:01.683Z,-4.10
2022-12-12T02:52:29.871Z,-4.10
2022-12-12T02:54:57.946Z,-4.10
2022-12-12T02:57:26.814Z,-4.10
2022-12-12T02:59:56.714Z,-4.10
2022-12-12T03:02:38.577Z,-4.10
2022-12-12T03:05:31.268Z,-4.20
2022-12-12T03:08:05.472Z,-4.20
2022-12-12T03:10:42.336Z,-4.20
2022-12-12T03:13:12.794Z,-4.30
2022-12-12T03:15:45.360Z,-4.30
2022-12-12T03:18:21.927Z,-4.30
2022-12-12T03:20:52.529Z,-4.40
2022-12-12T03:23:23.118Z,-4.40
2022-12-12T03:25:53.725Z,-4.40
2022-12-12T03:28:24.911Z,-4.50
2022-12-12T03:30:55.315Z,-4.50
2022-12-12T03:33:27.396Z,-4.50
2022-12-12T03:35:57.502Z,-4.50
2022-12-12T03:38:27.798Z,-4.50
2022-12-12T03:40:56.579Z,-4.50
2022-12-12T03:43:26.322Z,-4.50
2022-12-12T03:45:57.241Z,-4.50
2022-12-12T03:48:28.731Z,-4.50
2022-12-12T03:50:59.646Z,-4.50
2022-12-12T03:53:32.598Z,-4.50
2022-12-12T03:56:03.302Z,-4.50
2022-12-12T03:58:34.257Z,-4.50
2022-12-12T04:01:04.470Z,-4.50
2022-12-12T04:03:39.522Z,-4.50
2022-12-12T04:06:30.198Z,-4.50
2022-12-12T04:09:17.159Z,-4.50
2022-12-12T04:12:12.129Z,-4.50
2022-12-12T04:14:54.817Z,-4.50
2022-12-12T04:17:25.735Z,-4.50
2022-12-12T04:20:14.724Z,-4.60
2022-12-12T04:23:04.814Z,-4.60
2022-12-12T04:25:56.645Z,-4.60
2022-12-12T04:28:26.443Z,-4.60
2022-12-12T04:30:54.570Z,-4.60
2022-12-12T04:33:25.211Z,-4.60
2022-12-12T04:35:55.529Z,-4.70
2022-12-12T04:38:25.342Z,-4.70
2022-12-12T04:40:55.506Z,-4.80
2022-12-12T04:43:26.484Z,-4.70
2022-12-12T04:45:55.317Z,-4.80
2022-12-12T04:48:25.567Z,-4.80
2022-12-12T04:50:55.375Z,-4.80
2022-12-12T04:53:27.447Z,-4.80
2022-12-12T04:55:57.166Z,-4.80
2022-12-12T04:58:25.512Z,-4.80
2022-12-12T05:00:54.719Z,-4.80
2022-12-12T05:03:27.438Z,-4.80
2022-12-12T05:05:58.982Z,-4.90
2022-12-12T05:08:29.379Z,-4.90
2022-12-12T05:11:00.145Z,-4.90
2022-12-12T05:13:29.355Z,-4.90
2022-12-12T05:15:59.764Z,-4.90
2022-12-12T05:18:28.170Z,-4.90
2022-12-12T05:20:57.466Z,-4.90
2022-12-12T05:23:28.954Z,-4.90
2022-12-12T05:25:59.554Z,-4.90
2022-12-12T05:28:27.691Z,-4.90
2022-12-12T05:30:55.714Z,-5.00
2022-12-12T05:33:24.659Z,-5.00
2022-12-12T05:35:52.696Z,-5.00
2022-12-12T05:38:22.211Z,-5.00
2022-12-12T05:40:50.762Z,-5.00
2022-12-12T05:43:18.646Z,-5.00
2022-12-12T05:45:47.053Z,-5.00
2022-12-12T05:48:18.365Z,-5.00
2022-12-12T05:50:49.131Z,-5.00
2022-12-12T05:53:17.128Z,-5.00
2022-12-12T05:55:46.475Z,-5.00
2022-12-12T05:58:14.431Z,-5.10
2022-12-12T06:00:42.411Z,-5.10
2022-12-12T06:03:10.413Z,-5.10
2022-12-12T06:05:38.394Z,-5.10
2022-12-12T06:08:06.596Z,-5.20
2022-12-12T06:10:34.753Z,-5.20
2022-12-12T06:13:04.036Z,-5.30
2022-12-12T06:15:32.028Z,-5.30
2022-12-12T06:17:59.918Z,-5.30
2022-12-12T06:20:28.356Z,-5.30
2022-12-12T06:22:56.430Z,-5.40
2022-12-12T06:25:24.450Z,-5.40
2022-12-12T06:27:52.434Z,-5.50
2022-12-12T06:30:21.780Z,-5.50
2022-12-12T06:32:49.767Z,-5.60
2022-12-12T06:35:17.714Z,-5.70
2022-12-12T06:37:45.610Z,-5.70
2022-12-12T06:40:13.872Z,-5.70
2022-12-12T06:42:47.749Z,-5.70
2022-12-12T06:45:16.676Z,-5.70
2022-12-12T06:47:46.405Z,-5.80
2022-12-12T06:50:17.877Z,-5.90
2022-12-12T06:52:49.963Z,-5.90
2022-12-12T06:55:18.205Z,-5.90
2022-12-12T06:57:46.183Z,-5.90
2022-12-12T07:00:14.588Z,-5.90
2022-12-12T07:02:42.517Z,-6.00
2022-12-12T07:05:12.318Z,-6.00
2022-12-12T07:07:40.521Z,-6.00
2022-12-12T07:10:09.006Z,-6.00
2022-12-12T07:12:36.886Z,-6.00
2022-12-12T07:15:05.700Z,-6.00
2022-12-12T07:17:33.583Z,-6.00
2022-12-12T07:20:01.918Z,-5.90
2022-12-12T07:22:31.211Z,-5.80
2022-12-12T07:24:59.455Z,-5.80
2022-12-12T07:27:27.363Z,-5.70
2022-12-12T07:29:55.541Z,-5.70
2022-12-12T07:32:23.430Z,-5.70
2022-12-12T07:34:51.376Z,-5.60
2022-12-12T07:37:19.351Z,-5.50
2022-12-12T07:39:48.844Z,-5.50
2022-12-12T07:42:16.734Z,-5.40
2022-12-12T07:44:44.649Z,-5.40
2022-12-12T07:47:12.596Z,-5.40
2022-12-12T07:49:40.522Z,-5.30
2022-12-12T07:52:08.427Z,-5.30
2022-12-12T07:54:36.376Z,-5.30
2022-12-12T07:57:05.839Z,-5.30
2022-12-12T07:59:33.768Z,-5.30
2022-12-12T08:02:01.768Z,-5.30
2022-12-12T08:04:29.927Z,-5.30
2022-12-12T08:07:04.045Z,-5.10
2022-12-12T08:09:34.899Z,-5.00
2022-12-12T08:12:02.817Z,-4.90
2022-12-12T08:14:32.204Z,-4.70
2022-12-12T08:17:00.310Z,-4.60
2022-12-12T08:19:28.222Z,-4.60
2022-12-12T08:21:56.109Z,-4.50
2022-12-12T08:24:24.186Z,-4.40
2022-12-12T08:26:52.309Z,-4.30
2022-12-12T08:29:20.197Z,-4.20
2022-12-12T08:31:49.887Z,-4.10
2022-12-12T08:34:17.914Z,-4.00
2022-12-12T08:36:46.571Z,-3.90
2022-12-12T08:39:16.336Z,-3.80
2022-12-12T08:41:45.073Z,-3.80
2022-12-12T08:44:13.504Z,-3.70
2022-12-12T08:46:41.742Z,-3.60
2022-12-12T08:49:11.697Z,-3.50
2022-12-12T08:51:39.779Z,-3.40
2022-12-12T08:54:07.690Z,-3.30
2022-12-12T08:56:35.651Z,-3.20
2022-12-12T08:59:03.930Z,-3.20
2022-12-12T09:01:31.875Z,-3.20
2022-12-12T09:03:59.815Z,-3.30
2022-12-12T09:06:29.130Z,-3.30
2022-12-12T09:08:57.300Z,-3.20
2022-12-12T09:11:25.249Z,-3.20
2022-12-12T09:13:53.470Z,-3.20
2022-12-12T09:16:23.323Z,-3.10
2022-12-12T09:18:51.440Z,-3.10
2022-12-12T09:21:19.754Z,-2.90
2022-12-12T09:23:49.084Z,-2.70
2022-12-12T09:26:17.898Z,-2.40
2022-12-12T09:28:45.852Z,-2.10
2022-12-12T09:31:13.950Z,-1.80
2022-12-12T09:33:42.992Z,-1.60
2022-12-12T09:36:12.005Z,-1.40
2022-12-12T09:38:39.999Z,-1.20
2022-12-12T09:41:14.510Z,-1.40
2022-12-12T09:43:47.448Z,-1.60
2022-12-12T09:46:17.489Z,-1.60
2022-12-12T09:48:47.223Z,-1.60
2022-12-12T09:51:15.310Z,-1.80
2022-12-12T09:53:44.702Z,-1.80
2022-12-12T09:56:16.399Z,-1.80
2022-12-12T09:58:49.201Z,-1.90
2022-12-12T10:01:24.756Z,-1.80
2022-12-12T10:03:57.252Z,-1.70
2022-12-12T10:06:37.170Z,-1.60
2022-12-12T10:09:10.271Z,-1.50
2022-12-12T10:11:54.900Z,-1.40
2022-12-12T10:14:27.488Z,-1.30
2022-12-12T10:16:58.182Z,-1.10
2022-12-12T10:19:28.579Z,-1.00
2022-12-12T10:21:59.691Z,-0.80
2022-12-12T10:24:31.132Z,-0.80
2022-12-12T10:27:00.986Z,-0.80
2022-12-12T10:29:29.066Z,-0.80
2022-12-12T10:32:01.825Z,-0.80
2022-12-12T10:34:38.624Z,-0.90
2022-12-12T10:37:15.006Z,-0.80
2022-12-12T10:39:48.961Z,-0.50
2022-12-12T10:42:23.271Z,-0.10
2022-12-12T10:45:01.321Z,0.10
2022-12-12T10:47:29.317Z,0.50
2022-12-12T10:49:59.653Z,1.10
2022-12-12T10:52:27.535Z,1.40
2022-12-12T10:54:58.856Z,1.00
2022-12-12T10:57:29.823Z,1.00
2022-12-12T10:59:59.068Z,1.40
2022-12-12T11:02:29.742Z,2.20
2022-12-12T11:05:02.393Z,2.50
2022-12-12T11:07:30.894Z,2.70
2022-12-12T11:10:02.321Z,2.40
2022-12-12T11:12:35.574Z,2.00
2022-12-12T11:15:05.841Z,1.70
2022-12-12T11:17:34.925Z,1.50
2022-12-12T11:20:04.121Z,1.70
2022-12-12T11:22:33.384Z,1.80
2022-12-12T11:25:01.631Z,1.70
2022-12-12T11:27:31.097Z,1.60
2022-12-12T11:30:01.670Z,1.40
2022-12-12T11:32:31.271Z,1.20
2022-12-12T11:35:00.275Z,1.00
2022-12-12T11:37:30.423Z,0.70
2022-12-12T11:39:58.708Z,0.40
2022-12-12T11:42:28.838Z,0.20
2022-12-12T11:45:18.237Z,0.20
2022-12-12T11:47:46.978Z,0.00
2022-12-12T11:50:22.333Z,-0.20
2022-12-12T11:52:50.972Z,-0.30
2022-12-12T11:55:20.880Z,-0.40
2022-12-12T11:58:03.840Z,-0.40
2022-12-12T12:00:38.523Z,-0.40
2022-12-12T12:03:19.928Z,-0.30
2022-12-12T12:05:52.366Z,-0.30
2022-12-12T12:08:32.596Z,-0.20
2022-12-12T12:11:06.114Z,0.00
2022-12-12T12:13:41.563Z,0.30
2022-12-12T12:16:13.868Z,0.60
2022-12-12T12:18:50.371Z,1.00
2022-12-12T12:21:25.650Z,1.20
2022-12-12T12:24:00.449Z,1.50
2022-12-12T12:26:34.795Z,1.70
2022-12-12T12:29:07.343Z,1.80
2022-12-12T12:31:43.870Z,1.90
2022-12-12T12:34:16.501Z,1.90
2022-12-12T12:36:47.953Z,1.60
2022-12-12T12:39:18.943Z,1.40
2022-12-12T12:41:57.574Z,1.30
2022-12-12T12:44:33.977Z,1.30
2022-12-12T12:47:07.201Z,1.30
2022-12-12T12:49:39.119Z,1.30
2022-12-12T12:52:08.813Z,1.30
2022-12-12T12:54:38.754Z,1.30
2022-12-12T12:57:08.391Z,1.30
2022-12-12T12:59:38.894Z,1.10
2022-12-12T13:02:15.448Z,1.10
2022-12-12T13:04:46.685Z,1.10
2022-12-12T13:07:17.784Z,1.10
2022-12-12T13:09:49.379Z,1.00
2022-12-12T13:12:19.949Z,0.90
2022-12-12T13:14:52.155Z,0.90
2022-12-12T13:17:23.225Z,0.90
2022-12-12T13:19:53.455Z,0.80
2022-12-12T13:22:27.379Z,0.70
2022-12-12T13:25:00.247Z,0.60
2022-12-12T13:27:30.624Z,0.60
2022-12-12T13:30:01.408Z,0.60
2022-12-12T13:32:47.497Z,0.40
2022-12-12T13:35:16.792Z,0.40
2022-12-12T13:37:46.012Z,0.40
2022-12-12T13:40:22.881Z,0.30
2022-12-12T13:42:55.448Z,0.20
2022-12-12T13:45:35.622Z,-0.10
2022-12-12T13:48:06.152Z,-0.30
2022-12-12T13:50:34.423Z,-0.60
2022-12-12T13:53:19.394Z,-0.70
2022-12-12T13:55:47.421Z,-0.90
2022-12-12T13:58:32.429Z,-1.00
2022-12-12T14:01:19.357Z,-1.10
2022-12-12T14:03:48.775Z,-1.10
2022-12-12T14:06:20.173Z,-1.20
2022-12-12T14:08:49.726Z,-1.30
2022-12-12T14:11:29.437Z,-1.40
2022-12-12T14:14:05.448Z,-1.40
2022-12-12T14:16:33.889Z,-1.50
2022-12-12T14:19:07.776Z,-1.60
2022-12-12T14:21:43.718Z,-1.70
2022-12-12T14:24:30.586Z,-1.80
2022-12-12T14:26:58.567Z,-1.80
2022-12-12T14:29:27.814Z,-1.80
2022-12-12T14:32:02.787Z,-1.80
2022-12-12T14:34:34.514Z,-1.80
2022-12-12T14:37:16.733Z,-1.90
2022-12-12T14:39:49.941Z,-1.90
2022-12-12T14:42:21.900Z,-2.00
2022-12-12T14:44:51.042Z,-2.00
2022-12-12T14:47:19.451Z,-2.00
2022-12-12T14:49:48.818Z,-2.00
2022-12-12T14:52:18.732Z,-2.10
2022-12-12T14:54:46.711Z,-2.10
2022-12-12T14:57:19.373Z,-2.20
2022-12-12T14:59:47.366Z,-2.20
2022-12-12T15:02:18.527Z,-2.20
2022-12-12T15:04:50.588Z,-2.30
2022-12-12T15:07:25.986Z,-2.30
2022-12-12T15:09:54.089Z,-2.40
2022-12-12T15:12:22.949Z,-2.50
2022-12-12T15:14:54.910Z,-2.50
2022-12-12T15:17:24.484Z,-2.60
2022-12-12T15:19:55.000Z,-2.60
2022-12-12T15:22:24.761Z,-2.60
2022-12-12T15:24:53.191Z,-2.70
2022-12-12T15:27:23.355Z,-2.70
2022-12-12T15:29:51.659Z,-2.70
2022-12-12T15:32:21.341Z,-2.80
2022-12-12T15:34:59.458Z,-2.80
2022-12-12T15:37:29.632Z,-2.80
2022-12-12T15:40:13.563Z,-2.80
2022-12-12T15:42:42.894Z,-2.80
2022-12-12T15:45:16.232Z,-2.90
2022-12-12T15:47:44.172Z,-2.80
2022-12-12T15:50:15.834Z,-2.90
2022-12-12T15:52:45.456Z,-2.90
2022-12-12T15:55:21.294Z,-2.90
2022-12-12T15:57:50.815Z,-3.00
2022-12-12T16:00:29.146Z,-3.00
2022-12-12T16:03:01.048Z,-3.00
2022-12-12T16:05:31.256Z,-3.00
2022-12-12T16:08:17.634Z,-3.10
2022-12-12T16:10:52.597Z,-3.10
2022-12-12T16:13:24.153Z,-3.10
2022-12-12T16:15:52.288Z,-3.10
2022-12-12T16:18:21.894Z,-3.10
2022-12-12T16:20:51.483Z,-3.10
2022-12-12T16:23:22.208Z,-3.10
2022-12-12T16:25:50.507Z,-3.10
2022-12-12T16:28:25.321Z,-3.20
2022-12-12T16:30:58.746Z,-3.20
2022-12-12T16:33:31.284Z,-3.20
2022-12-12T16:36:00.701Z,-3.20
2022-12-12T16:38:29.330Z,-3.30
2022-12-12T16:40:59.443Z,-3.20
2022-12-12T16:43:29.116Z,-3.30
2022-12-12T16:45:57.641Z,-3.30
2022-12-12T16:48:26.420Z,-3.40
2022-12-12T16:50:57.306Z,-3.40
2022-12-12T16:53:25.238Z,-3.40
2022-12-12T16:55:53.865Z,-3.40
2022-12-12T16:58:22.575Z,-3.40
2022-12-12T17:00:53.475Z,-3.50
2022-12-12T17:03:23.361Z,-3.50
2022-12-12T17:05:51.718Z,-3.60
2022-12-12T17:08:19.909Z,-3.60
2022-12-12T17:10:49.237Z,-3.60
2022-12-12T17:13:18.196Z,-3.70
2022-12-12T17:15:46.547Z,-3.70
2022-12-12T17:18:16.025Z,-3.70
2022-12-12T17:20:44.135Z,-3.80
2022-12-12T17:23:29.238Z,-3.80
2022-12-12T17:26:03.692Z,-3.80
2022-12-12T17:28:32.542Z,-3.80
2022-12-12T17:31:00.760Z,-3.80
2022-12-12T17:33:30.176Z,-3.80
2022-12-12T17:35:59.717Z,-3.80
2022-12-12T17:38:27.904Z,-3.80
2022-12-12T17:40:56.868Z,-3.80
2022-12-12T17:43:25.210Z,-3.80
2022-12-12T17:46:00.280Z,-3.80
2022-12-12T17:48:31.221Z,-3.80
2022-12-12T17:51:00.009Z,-3.80
2022-12-12T17:53:32.233Z,-3.80
2022-12-12T17:56:01.055Z,-3.80
2022-12-12T17:58:32.793Z,-3.80
2022-12-12T18:01:01.600Z,-3.80
2022-12-12T18:03:30.923Z,-3.80
2022-12-12T18:06:00.767Z,-3.80
2022-12-12T18:08:29.651Z,-3.80
2022-12-12T18:10:57.567Z,-3.80
2022-12-12T18:13:25.521Z,-3.80
2022-12-12T18:15:54.865Z,-3.80
2022-12-12T18:18:22.964Z,-3.80
2022-12-12T18:20:52.314Z,-3.80
2022-12-12T18:23:20.238Z,-3.80
2022-12-12T18:25:48.314Z,-3.80
2022-12-12T18:28:16.221Z,-3.80
2022-12-12T18:30:44.091Z,-3.80
2022-12-12T18:33:12.663Z,-3.80
2022-12-12T18:35:40.594Z,-3.80
2022-12-12T18:38:09.898Z,-3.80
2022-12-12T18:40:39.250Z,-3.80
2022-12-12T18:43:07.403Z,-3.80
2022-12-12T18:45:36.997Z,-3.80
2022-12-12T18:48:05.393Z,-3.80
2022-12-12T18:50:33.915Z,-3.80
2022-12-12T18:53:01.826Z,-3.80
2022-12-12T18:55:31.314Z,-3.80
2022-12-12T18:57:59.270Z,-3.80
2022-12-12T19:00:27.284Z,-3.80
2022-12-12T19:02:55.189Z,-3.80
2022-12-12T19:05:23.146Z,-3.80
2022-12-12T19:07:51.904Z,-3.80
2022-12-12T19:10:20.017Z,-3.90
2022-12-12T19:12:49.516Z,-3.80
2022-12-12T19:15:18.155Z,-3.90
2022-12-12T19:17:46.257Z,-3.90
2022-12-12T19:20:14.533Z,-3.90
2022-12-12T19:22:46.826Z,-3.90
2022-12-12T19:25:15.464Z,-3.90
2022-12-12T19:27:43.451Z,-3.90
2022-12-12T19:30:14.240Z,-3.90
2022-12-12T19:32:43.071Z,-3.90
2022-12-12T19:35:11.131Z,-3.90
2022-12-12T19:37:41.632Z,-3.90
2022-12-12T19:40:10.267Z,-3.90
2022-12-12T19:42:38.332Z,-3.90
2022-12-12T19:45:06.648Z,-3.90
2022-12-12T19:47:36.370Z,-3.90
2022-12-12T19:50:05.049Z,-3.90
2022-12-12T19:52:32.910Z,-3.90
2022-12-12T19:55:01.020Z,-3.90
2022-12-12T19:57:28.921Z,-3.90
2022-12-12T19:59:56.801Z,-3.90
2022-12-12T20:02:24.720Z,-3.90
2022-12-12T20:04:54.007Z,-3.90
2022-12-12T20:07:21.917Z,-3.90
2022-12-12T20:09:49.935Z,-3.90
2022-12-12T20:12:18.238Z,-3.90
2022-12-12T20:14:46.520Z,-3.90
2022-12-12T20:17:14.459Z,-3.90
2022-12-12T20:19:43.153Z,-3.90
2022-12-12T20:22:12.651Z,-3.90
2022-12-12T20:24:40.817Z,-3.90
2022-12-12T20:27:08.973Z,-3.90
2022-12-12T20:29:37.159Z,-3.90
2022-12-12T20:32:05.228Z,-3.90
2022-12-12T20:34:33.224Z,-3.90
2022-12-12T20:37:01.101Z,-3.90
2022-12-12T20:39:30.996Z,-3.90
2022-12-12T20:41:58.987Z,-3.90
2022-12-12T20:44:29.170Z,-3.90
2022-12-12T20:46:58.804Z,-3.90
2022-12-12T20:49:28.772Z,-3.90
2022-12-12T20:51:58.630Z,-3.90
2022-12-12T20:54:27.836Z,-3.90
2022-12-12T20:56:57.640Z,-3.90
2022-12-12T20:59:25.934Z,-3.90
2022-12-12T21:01:54.343Z,-3.90
2022-12-12T21:04:22.512Z,-3.90
2022-12-12T21:06:51.760Z,-3.90
2022-12-12T21:09:24.879Z,-3.90
2022-12-12T21:11:54.079Z,-3.90
2022-12-12T21:14:23.619Z,-3.90
2022-12-12T21:16:51.510Z,-3.90
2022-12-12T21:19:21.093Z,-3.90
2022-12-12T21:21:49.147Z,-3.90
2022-12-12T21:24:17.877Z,-3.90
2022-12-12T21:26:46.725Z,-3.90
2022-12-12T21:29:15.489Z,-3.90
2022-12-12T21:31:51.054Z,-3.90
2022-12-12T21:34:21.089Z,-3.80
2022-12-12T21:36:50.721Z,-3.90
2022-12-12T21:39:18.643Z,-3.80
2022-12-12T21:41:46.567Z,-3.80
2022-12-12T21:44:14.508Z,-3.80
2022-12-12T21:46:44.022Z,-3.80
2022-12-12T21:49:27.509Z,-3.80
2022-12-12T21:51:56.380Z,-3.80
2022-12-12T21:54:24.630Z,-3.80
2022-12-12T21:56:52.823Z,-3.80
2022-12-12T21:59:20.727Z,-3.80
2022-12-12T22:01:48.872Z,-3.80
2022-12-12T22:04:18.239Z,-3.80
2022-12-12T22:06:46.989Z,-3.80
2022-12-12T22:09:14.855Z,-3.70
2022-12-12T22:11:49.551Z,-3.70
2022-12-12T22:14:18.471Z,-3.70
2022-12-12T22:16:46.458Z,-3.80
2022-12-12T22:19:15.761Z,-3.70
2022-12-12T22:21:46.363Z,-3.80
2022-12-12T22:24:14.305Z,-3.70
2022-12-12T22:26:43.661Z,-3.70
2022-12-12T22:29:12.625Z,-3.70
2022-12-12T22:31:41.223Z,-3.80
2022-12-12T22:34:11.538Z,-3.80
2022-12-12T22:36:39.772Z,-3.80
2022-12-12T22:39:14.574Z,-3.80
2022-12-12T22:41:42.549Z,-3.80
2022-12-12T22:44:13.357Z,-3.80
2022-12-12T22:46:44.049Z,-3.80
2022-12-12T22:49:13.675Z,-3.80
2022-12-12T22:51:41.681Z,-3.80
2022-12-12T22:54:10.998Z,-3.80
2022-12-12T22:56:39.897Z,-3.80
2022-12-12T22:59:08.517Z,-3.80
2022-12-12T23:01:36.405Z,-3.80
2022-12-12T23:04:04.335Z,-3.80
2022-12-12T23:06:34.239Z,-3.80
2022-12-12T23:09:02.852Z,-3.80
2022-12-12T23:11:32.564Z,-3.80
2022-12-12T23:14:01.325Z,-3.80
2022-12-12T23:16:30.900Z,-3.80
2022-12-12T23:18:59.072Z,-3.80
2022-12-12T23:21:27.282Z,-3.80
2022-12-12T23:23:55.415Z,-3.80
2022-12-12T23:26:24.615Z,-3.80
2022-12-12T23:28:53.964Z,-3.70
2022-12-12T23:31:23.004Z,-3.80
2022-12-12T23:33:52.987Z,-3.80
2022-12-12T23:36:20.870Z,-3.70
2022-12-12T23:38:48.745Z,-3.80
2022-12-12T23:41:17.239Z,-3.80
2022-12-12T23:43:45.325Z,-3.80
2022-12-12T23:46:28.434Z,-3.80
2022-12-12T23:48:57.731Z,-3.80
2022-12-12T23:51:26.193Z,-3.80
2022-12-12T23:53:56.351Z,-3.80
2022-12-12T23:56:24.272Z,-3.80
2022-12-12T23:58:52.615Z,-3.80
